Aérodrome :
LOGIN :

S'inscrire | Disclaimer

   EN    FR    IT 

 










Légende :    VFR   VFR Marginal   IFR   IFR Intensif   IFR Très Intensif
Visi : 
Plafond : 
>= 8 km
>= 3000ft
5 à 8 km
1000 à 3000 ft
1500m à 5 km
500 à 1000 ft
800 à 1500m
200 à 500 ft
< 800m
< 200 ft
Symboles :   Orages  Brouillard  Fortes neiges  Fortes précipitations  Vent > 20 kt
SIGMETs :   Divers  Orages  Givrage  Turbulence  Onde Orograph.  Cendres Volcan.







- Altitude de l'aérodrome : 137 ft
- Code IATA : ARN


ESSA - Stockholm-Arlanda

DERNIER METAR :
  • 121220Z 34005KT 9999 SCT005 BKN027 01/00 Q1030 R01L/29//62 R08/29//71 R01R/520171 NOSIG

METARs EXPIRÉS :
  • 121150Z 35006KT 9999 SCT006 OVC027 01/00 Q1030 R01L/29//62 R08/29//71 R01R/520171 NOSIG
  • 121120Z 34005KT 9999 SCT007 BKN027 01/00 Q1030 R01L/29//62 R08/510171 R01R/520171 TEMPO BKN006
  • 121050Z 36005KT 9999 BKN005 BKN024 01/00 Q1030 R01L/29//62 R08/510171 R01R/520171 BECMG BKN006
  • 121020Z 01006KT 9999 BKN005 00/00 Q1030 R01L/29//62 R08/510171 R01R/520171 BECMG BKN006
  • 120950Z 35007KT 9999 BKN004 00/00 Q1030 R01L/29//62 R08/510171 R01R/520171 BECMG BKN006

TAF TAF ESSA
Valide du 12 à 12h jusqu'au 13 à 12h UTC


121130Z 1212/1312 36005KT 9999 BKN006
PROB40 1212/1312 4000 -SHSN SCT015
Pas de NOTAMs connus pour ce terrain.



MET'MAP, la Météo Aéronautique d'un coup d'oeil ! - Copyright ORBIFLY Décembre 2007 - Disclaimer

ORBIFLY MET'MAP TEAM :

Programmation & Développement : Alexandra Zaïnal
Conception & Développement : Baudouin d'Aumeries
Co-Programmation & Développement : Marc-Olivier Méhu
Soutien technique & logistique : Manuel Goepfert

Contact : metmap@orbifly.com




SOURCES & CREDITS :

   NOAA